sensor_id;sensor_type;location;lat;lon;timestamp;P1;durP1;ratioP1;P2;durP2;ratioP2
31768;SDS011;18342;52.132;21.048;2022-11-20T00:02:10;59.57;;;27.27;;
31768;SDS011;18342;52.132;21.048;2022-11-20T00:04:36;52.90;;;24.03;;
31768;SDS011;18342;52.132;21.048;2022-11-20T00:07:01;54.50;;;24.27;;
31768;SDS011;18342;52.132;21.048;2022-11-20T00:09:27;50.33;;;23.83;;
31768;SDS011;18342;52.132;21.048;2022-11-20T00:11:53;51.83;;;22.70;;
31768;SDS011;18342;52.132;21.048;2022-11-20T00:14:18;53.73;;;23.17;;
31768;SDS011;18342;52.132;21.048;2022-11-20T00:16:44;53.57;;;23.10;;
31768;SDS011;18342;52.132;21.048;2022-11-20T00:19:10;50.67;;;23.03;;
31768;SDS011;18342;52.132;21.048;2022-11-20T00:21:35;49.67;;;23.00;;
31768;SDS011;18342;52.132;21.048;2022-11-20T00:24:01;52.43;;;22.90;;
31768;SDS011;18342;52.132;21.048;2022-11-20T00:26:27;56.37;;;23.43;;
31768;SDS011;18342;52.132;21.048;2022-11-20T00:28:54;52.03;;;22.70;;
31768;SDS011;18342;52.132;21.048;2022-11-20T00:31:22;54.70;;;24.03;;
31768;SDS011;18342;52.132;21.048;2022-11-20T00:33:48;56.73;;;23.70;;
31768;SDS011;18342;52.132;21.048;2022-11-20T00:36:14;57.07;;;23.80;;
31768;SDS011;18342;52.132;21.048;2022-11-20T00:38:42;51.20;;;23.00;;
31768;SDS011;18342;52.132;21.048;2022-11-20T00:41:08;51.87;;;21.97;;
31768;SDS011;18342;52.132;21.048;2022-11-20T00:43:36;54.20;;;22.90;;
31768;SDS011;18342;52.132;21.048;2022-11-20T00:46:06;52.70;;;23.57;;
31768;SDS011;18342;52.132;21.048;2022-11-20T00:48:42;49.27;;;21.03;;
31768;SDS011;18342;52.132;21.048;2022-11-20T00:51:08;49.83;;;22.63;;
31768;SDS011;18342;52.132;21.048;2022-11-20T00:53:36;54.73;;;23.40;;
31768;SDS011;18342;52.132;21.048;2022-11-20T00:56:02;53.70;;;22.07;;
31768;SDS011;18342;52.132;21.048;2022-11-20T00:58:40;51.93;;;22.50;;
31768;SDS011;18342;52.132;21.048;2022-11-20T01:01:11;50.83;;;21.70;;
31768;SDS011;18342;52.132;21.048;2022-11-20T01:03:39;53.10;;;23.20;;
31768;SDS011;18342;52.132;21.048;2022-11-20T01:06:08;49.70;;;22.57;;
31768;SDS011;18342;52.132;21.048;2022-11-20T01:08:37;46.50;;;22.17;;
31768;SDS011;18342;52.132;21.048;2022-11-20T01:11:24;52.93;;;22.10;;
31768;SDS011;18342;52.132;21.048;2022-11-20T01:13:50;50.27;;;21.23;;
31768;SDS011;18342;52.132;21.048;2022-11-20T01:16:27;48.17;;;22.60;;
31768;SDS011;18342;52.132;21.048;2022-11-20T01:18:56;51.20;;;21.37;;
31768;SDS011;18342;52.132;21.048;2022-11-20T01:21:27;48.23;;;21.20;;
31768;SDS011;18342;52.132;21.048;2022-11-20T01:23:55;50.60;;;21.50;;
31768;SDS011;18342;52.132;21.048;2022-11-20T01:26:23;52.47;;;22.43;;
31768;SDS011;18342;52.132;21.048;2022-11-20T01:28:53;44.63;;;21.97;;
31768;SDS011;18342;52.132;21.048;2022-11-20T01:31:22;54.40;;;24.43;;
31768;SDS011;18342;52.132;21.048;2022-11-20T01:33:53;47.70;;;21.77;;
31768;SDS011;18342;52.132;21.048;2022-11-20T01:36:22;47.93;;;22.40;;
31768;SDS011;18342;52.132;21.048;2022-11-20T01:38:52;50.53;;;23.83;;
31768;SDS011;18342;52.132;21.048;2022-11-20T01:41:19;56.07;;;23.30;;
31768;SDS011;18342;52.132;21.048;2022-11-20T01:44:05;55.70;;;23.53;;
31768;SDS011;18342;52.132;21.048;2022-11-20T01:46:32;54.67;;;23.53;;
31768;SDS011;18342;52.132;21.048;2022-11-20T01:49:05;49.67;;;22.83;;
31768;SDS011;18342;52.132;21.048;2022-11-20T01:51:50;55.13;;;22.17;;
31768;SDS011;18342;52.132;21.048;2022-11-20T01:54:21;54.57;;;23.70;;
31768;SDS011;18342;52.132;21.048;2022-11-20T01:56:53;53.10;;;24.83;;
31768;SDS011;18342;52.132;21.048;2022-11-20T01:59:21;52.07;;;23.63;;
31768;SDS011;18342;52.132;21.048;2022-11-20T02:01:50;63.70;;;23.87;;
31768;SDS011;18342;52.132;21.048;2022-11-20T02:04:17;53.77;;;23.10;;
31768;SDS011;18342;52.132;21.048;2022-11-20T02:06:46;56.83;;;23.73;;
31768;SDS011;18342;52.132;21.048;2022-11-20T02:09:15;53.33;;;22.87;;
31768;SDS011;18342;52.132;21.048;2022-11-20T02:11:41;49.47;;;23.93;;
31768;SDS011;18342;52.132;21.048;2022-11-20T02:14:06;53.73;;;23.37;;
31768;SDS011;18342;52.132;21.048;2022-11-20T02:16:34;57.17;;;23.53;;
31768;SDS011;18342;52.132;21.048;2022-11-20T02:19:09;57.60;;;24.43;;
31768;SDS011;18342;52.132;21.048;2022-11-20T02:21:58;57.60;;;23.77;;
31768;SDS011;18342;52.132;21.048;2022-11-20T02:24:39;49.80;;;23.33;;
31768;SDS011;18342;52.132;21.048;2022-11-20T02:27:09;50.13;;;23.30;;
31768;SDS011;18342;52.132;21.048;2022-11-20T02:34:51;59.17;;;24.10;;
31768;SDS011;18342;52.132;21.048;2022-11-20T02:37:17;57.03;;;23.73;;
31768;SDS011;18342;52.132;21.048;2022-11-20T02:39:44;53.97;;;24.20;;
31768;SDS011;18342;52.132;21.048;2022-11-20T02:42:12;54.63;;;24.50;;
31768;SDS011;18342;52.132;21.048;2022-11-20T02:44:38;55.13;;;24.60;;
31768;SDS011;18342;52.132;21.048;2022-11-20T02:47:04;60.47;;;23.77;;
31768;SDS011;18342;52.132;21.048;2022-11-20T02:49:30;60.67;;;25.87;;
31768;SDS011;18342;52.132;21.048;2022-11-20T02:51:55;51.83;;;22.93;;
31768;SDS011;18342;52.132;21.048;2022-11-20T02:54:21;57.03;;;24.53;;
31768;SDS011;18342;52.132;21.048;2022-11-20T02:56:47;59.63;;;25.67;;
31768;SDS011;18342;52.132;21.048;2022-11-20T02:59:13;56.47;;;24.83;;
31768;SDS011;18342;52.132;21.048;2022-11-20T03:01:38;57.60;;;25.23;;
31768;SDS011;18342;52.132;21.048;2022-11-20T03:04:04;57.20;;;25.23;;
31768;SDS011;18342;52.132;21.048;2022-11-20T03:06:30;53.07;;;24.73;;
31768;SDS011;18342;52.132;21.048;2022-11-20T03:08:55;60.67;;;25.17;;
31768;SDS011;18342;52.132;21.048;2022-11-20T03:11:21;46.20;;;23.07;;
31768;SDS011;18342;52.132;21.048;2022-11-20T03:13:47;56.13;;;25.40;;
31768;SDS011;18342;52.132;21.048;2022-11-20T03:16:13;54.93;;;25.10;;
31768;SDS011;18342;52.132;21.048;2022-11-20T03:18:42;50.87;;;23.23;;
31768;SDS011;18342;52.132;21.048;2022-11-20T03:21:09;61.23;;;26.20;;
31768;SDS011;18342;52.132;21.048;2022-11-20T03:23:35;54.00;;;24.30;;
31768;SDS011;18342;52.132;21.048;2022-11-20T03:26:09;63.33;;;26.83;;
31768;SDS011;18342;52.132;21.048;2022-11-20T03:28:39;55.77;;;25.63;;
31768;SDS011;18342;52.132;21.048;2022-11-20T03:31:10;57.47;;;25.20;;
31768;SDS011;18342;52.132;21.048;2022-11-20T03:33:38;61.57;;;26.60;;
31768;SDS011;18342;52.132;21.048;2022-11-20T03:36:05;54.57;;;25.30;;
31768;SDS011;18342;52.132;21.048;2022-11-20T03:38:33;56.23;;;24.33;;
31768;SDS011;18342;52.132;21.048;2022-11-20T03:41:00;58.50;;;25.47;;
31768;SDS011;18342;52.132;21.048;2022-11-20T03:43:27;60.57;;;24.53;;
31768;SDS011;18342;52.132;21.048;2022-11-20T03:45:53;57.67;;;24.13;;
31768;SDS011;18342;52.132;21.048;2022-11-20T03:48:19;52.47;;;23.97;;
31768;SDS011;18342;52.132;21.048;2022-11-20T03:50:44;61.03;;;25.83;;
31768;SDS011;18342;52.132;21.048;2022-11-20T03:53:12;58.00;;;25.63;;
31768;SDS011;18342;52.132;21.048;2022-11-20T03:55:38;52.37;;;25.33;;
31768;SDS011;18342;52.132;21.048;2022-11-20T03:58:04;55.80;;;24.43;;
31768;SDS011;18342;52.132;21.048;2022-11-20T04:00:29;60.03;;;25.10;;
31768;SDS011;18342;52.132;21.048;2022-11-20T04:02:58;59.37;;;24.87;;
31768;SDS011;18342;52.132;21.048;2022-11-20T04:05:25;50.77;;;24.63;;
31768;SDS011;18342;52.132;21.048;2022-11-20T04:07:50;57.00;;;25.07;;
31768;SDS011;18342;52.132;21.048;2022-11-20T04:10:16;52.03;;;24.40;;
31768;SDS011;18342;52.132;21.048;2022-11-20T04:12:42;62.80;;;25.77;;
31768;SDS011;18342;52.132;21.048;2022-11-20T04:15:08;52.70;;;24.80;;
31768;SDS011;18342;52.132;21.048;2022-11-20T04:17:34;54.37;;;24.70;;
31768;SDS011;18342;52.132;21.048;2022-11-20T04:20:00;61.10;;;24.67;;
31768;SDS011;18342;52.132;21.048;2022-11-20T04:22:27;56.20;;;23.67;;
31768;SDS011;18342;52.132;21.048;2022-11-20T04:24:52;56.27;;;26.23;;
31768;SDS011;18342;52.132;21.048;2022-11-20T04:27:18;52.40;;;23.90;;
31768;SDS011;18342;52.132;21.048;2022-11-20T04:29:43;49.50;;;23.53;;
31768;SDS011;18342;52.132;21.048;2022-11-20T04:32:09;56.13;;;24.20;;
31768;SDS011;18342;52.132;21.048;2022-11-20T04:34:35;52.40;;;23.43;;
31768;SDS011;18342;52.132;21.048;2022-11-20T04:37:00;51.23;;;23.47;;
31768;SDS011;18342;52.132;21.048;2022-11-20T04:39:26;52.80;;;23.47;;
31768;SDS011;18342;52.132;21.048;2022-11-20T04:41:52;59.33;;;26.30;;
31768;SDS011;18342;52.132;21.048;2022-11-20T04:44:38;51.23;;;23.77;;
31768;SDS011;18342;52.132;21.048;2022-11-20T04:47:03;56.70;;;23.90;;
31768;SDS011;18342;52.132;21.048;2022-11-20T04:49:29;54.00;;;24.33;;
31768;SDS011;18342;52.132;21.048;2022-11-20T04:51:56;55.90;;;23.97;;
31768;SDS011;18342;52.132;21.048;2022-11-20T04:54:22;53.90;;;25.23;;
31768;SDS011;18342;52.132;21.048;2022-11-20T04:56:48;51.20;;;23.47;;
31768;SDS011;18342;52.132;21.048;2022-11-20T04:59:14;51.73;;;23.37;;
31768;SDS011;18342;52.132;21.048;2022-11-20T05:01:40;60.63;;;26.10;;
31768;SDS011;18342;52.132;21.048;2022-11-20T05:04:05;54.83;;;23.77;;
31768;SDS011;18342;52.132;21.048;2022-11-20T05:06:31;61.43;;;25.10;;
31768;SDS011;18342;52.132;21.048;2022-11-20T05:08:57;55.10;;;24.97;;
31768;SDS011;18342;52.132;21.048;2022-11-20T05:11:23;55.40;;;24.20;;
31768;SDS011;18342;52.132;21.048;2022-11-20T05:13:50;53.63;;;23.20;;
31768;SDS011;18342;52.132;21.048;2022-11-20T05:16:17;52.77;;;22.70;;
31768;SDS011;18342;52.132;21.048;2022-11-20T05:18:45;54.63;;;24.13;;
31768;SDS011;18342;52.132;21.048;2022-11-20T05:21:10;56.93;;;23.83;;
31768;SDS011;18342;52.132;21.048;2022-11-20T05:23:38;54.77;;;22.73;;
31768;SDS011;18342;52.132;21.048;2022-11-20T05:26:04;64.10;;;33.10;;
31768;SDS011;18342;52.132;21.048;2022-11-20T05:28:32;56.87;;;26.30;;
31768;SDS011;18342;52.132;21.048;2022-11-20T05:31:08;55.13;;;24.57;;
31768;SDS011;18342;52.132;21.048;2022-11-20T05:33:36;51.53;;;23.43;;
31768;SDS011;18342;52.132;21.048;2022-11-20T05:36:04;50.17;;;23.73;;
31768;SDS011;18342;52.132;21.048;2022-11-20T05:38:30;56.73;;;25.77;;
31768;SDS011;18342;52.132;21.048;2022-11-20T05:41:02;49.97;;;22.87;;
31768;SDS011;18342;52.132;21.048;2022-11-20T05:43:35;57.20;;;24.90;;
31768;SDS011;18342;52.132;21.048;2022-11-20T05:46:02;58.97;;;24.13;;
31768;SDS011;18342;52.132;21.048;2022-11-20T05:48:28;52.93;;;24.53;;
31768;SDS011;18342;52.132;21.048;2022-11-20T05:50:56;53.40;;;25.13;;
31768;SDS011;18342;52.132;21.048;2022-11-20T05:53:23;52.27;;;24.77;;
31768;SDS011;18342;52.132;21.048;2022-11-20T05:55:55;57.33;;;24.80;;
31768;SDS011;18342;52.132;21.048;2022-11-20T05:58:42;56.47;;;24.40;;
31768;SDS011;18342;52.132;21.048;2022-11-20T06:03:36;60.83;;;26.10;;
31768;SDS011;18342;52.132;21.048;2022-11-20T06:06:03;54.37;;;23.80;;
31768;SDS011;18342;52.132;21.048;2022-11-20T06:08:29;58.50;;;24.60;;
31768;SDS011;18342;52.132;21.048;2022-11-20T06:10:56;54.00;;;24.70;;
31768;SDS011;18342;52.132;21.048;2022-11-20T06:13:22;46.87;;;23.43;;
31768;SDS011;18342;52.132;21.048;2022-11-20T06:15:51;60.40;;;24.33;;
31768;SDS011;18342;52.132;21.048;2022-11-20T06:18:18;49.40;;;23.67;;
31768;SDS011;18342;52.132;21.048;2022-11-20T06:20:45;51.43;;;24.03;;
31768;SDS011;18342;52.132;21.048;2022-11-20T06:23:11;52.77;;;23.70;;
31768;SDS011;18342;52.132;21.048;2022-11-20T06:25:40;51.70;;;24.57;;
31768;SDS011;18342;52.132;21.048;2022-11-20T06:28:07;57.30;;;25.10;;
31768;SDS011;18342;52.132;21.048;2022-11-20T06:30:33;51.97;;;22.90;;
31768;SDS011;18342;52.132;21.048;2022-11-20T06:33:00;62.20;;;25.60;;
31768;SDS011;18342;52.132;21.048;2022-11-20T06:35:26;51.57;;;23.90;;
31768;SDS011;18342;52.132;21.048;2022-11-20T06:37:51;54.03;;;25.47;;
31768;SDS011;18342;52.132;21.048;2022-11-20T06:40:17;55.80;;;24.53;;
31768;SDS011;18342;52.132;21.048;2022-11-20T06:42:43;56.73;;;25.73;;
31768;SDS011;18342;52.132;21.048;2022-11-20T06:45:09;57.70;;;25.77;;
31768;SDS011;18342;52.132;21.048;2022-11-20T06:47:35;55.67;;;25.40;;
31768;SDS011;18342;52.132;21.048;2022-11-20T06:50:01;58.23;;;26.87;;
31768;SDS011;18342;52.132;21.048;2022-11-20T06:52:26;61.17;;;26.30;;
31768;SDS011;18342;52.132;21.048;2022-11-20T06:54:52;52.90;;;25.20;;
31768;SDS011;18342;52.132;21.048;2022-11-20T06:57:18;60.23;;;26.07;;
31768;SDS011;18342;52.132;21.048;2022-11-20T06:59:44;65.80;;;26.47;;
31768;SDS011;18342;52.132;21.048;2022-11-20T07:02:10;57.23;;;25.40;;
31768;SDS011;18342;52.132;21.048;2022-11-20T07:04:37;57.43;;;25.30;;
31768;SDS011;18342;52.132;21.048;2022-11-20T07:07:03;56.97;;;24.80;;
31768;SDS011;18342;52.132;21.048;2022-11-20T07:09:29;57.90;;;25.13;;
31768;SDS011;18342;52.132;21.048;2022-11-20T07:11:54;61.03;;;26.07;;
31768;SDS011;18342;52.132;21.048;2022-11-20T07:14:20;64.17;;;27.30;;
31768;SDS011;18342;52.132;21.048;2022-11-20T07:16:46;58.27;;;26.63;;
31768;SDS011;18342;52.132;21.048;2022-11-20T07:19:12;54.33;;;25.27;;
31768;SDS011;18342;52.132;21.048;2022-11-20T07:21:37;62.47;;;26.13;;
31768;SDS011;18342;52.132;21.048;2022-11-20T07:24:03;56.67;;;25.70;;
31768;SDS011;18342;52.132;21.048;2022-11-20T07:26:29;56.83;;;24.90;;
31768;SDS011;18342;52.132;21.048;2022-11-20T07:28:54;53.77;;;22.90;;
31768;SDS011;18342;52.132;21.048;2022-11-20T07:31:20;59.67;;;26.37;;
31768;SDS011;18342;52.132;21.048;2022-11-20T07:33:46;57.47;;;26.60;;
31768;SDS011;18342;52.132;21.048;2022-11-20T07:36:12;62.67;;;25.20;;
31768;SDS011;18342;52.132;21.048;2022-11-20T07:38:37;51.67;;;25.50;;
31768;SDS011;18342;52.132;21.048;2022-11-20T07:41:03;50.97;;;24.17;;
31768;SDS011;18342;52.132;21.048;2022-11-20T07:43:29;54.30;;;23.83;;
31768;SDS011;18342;52.132;21.048;2022-11-20T07:45:55;57.90;;;26.30;;
31768;SDS011;18342;52.132;21.048;2022-11-20T07:48:22;59.27;;;26.27;;
31768;SDS011;18342;52.132;21.048;2022-11-20T07:50:48;52.77;;;24.17;;
31768;SDS011;18342;52.132;21.048;2022-11-20T07:53:13;57.67;;;24.93;;
31768;SDS011;18342;52.132;21.048;2022-11-20T07:55:45;58.17;;;25.90;;
31768;SDS011;18342;52.132;21.048;2022-11-20T07:58:11;59.90;;;24.67;;
31768;SDS011;18342;52.132;21.048;2022-11-20T08:00:37;53.70;;;24.97;;
31768;SDS011;18342;52.132;21.048;2022-11-20T08:03:05;56.07;;;24.80;;
31768;SDS011;18342;52.132;21.048;2022-11-20T08:05:31;58.70;;;26.13;;
31768;SDS011;18342;52.132;21.048;2022-11-20T08:07:57;52.57;;;24.73;;
31768;SDS011;18342;52.132;21.048;2022-11-20T08:10:23;50.67;;;23.80;;
31768;SDS011;18342;52.132;21.048;2022-11-20T08:12:50;58.93;;;25.87;;
31768;SDS011;18342;52.132;21.048;2022-11-20T08:15:35;54.37;;;25.00;;
31768;SDS011;18342;52.132;21.048;2022-11-20T08:20:32;66.77;;;27.17;;
31768;SDS011;18342;52.132;21.048;2022-11-20T08:23:00;58.57;;;26.87;;
31768;SDS011;18342;52.132;21.048;2022-11-20T08:25:28;61.40;;;28.10;;
31768;SDS011;18342;52.132;21.048;2022-11-20T08:27:58;58.27;;;28.57;;
31768;SDS011;18342;52.132;21.048;2022-11-20T08:30:24;67.53;;;29.57;;
31768;SDS011;18342;52.132;21.048;2022-11-20T08:32:50;54.93;;;26.27;;
31768;SDS011;18342;52.132;21.048;2022-11-20T08:35:15;62.90;;;27.87;;
31768;SDS011;18342;52.132;21.048;2022-11-20T08:37:41;56.63;;;26.70;;
31768;SDS011;18342;52.132;21.048;2022-11-20T08:40:10;64.47;;;28.53;;
31768;SDS011;18342;52.132;21.048;2022-11-20T08:42:36;63.90;;;28.83;;
31768;SDS011;18342;52.132;21.048;2022-11-20T08:45:02;64.90;;;29.00;;
31768;SDS011;18342;52.132;21.048;2022-11-20T08:47:29;59.27;;;27.80;;
31768;SDS011;18342;52.132;21.048;2022-11-20T08:49:55;57.70;;;27.93;;
31768;SDS011;18342;52.132;21.048;2022-11-20T08:52:20;66.27;;;30.23;;
31768;SDS011;18342;52.132;21.048;2022-11-20T08:54:46;64.87;;;28.77;;
31768;SDS011;18342;52.132;21.048;2022-11-20T08:57:12;60.47;;;28.47;;
31768;SDS011;18342;52.132;21.048;2022-11-20T08:59:37;58.47;;;27.77;;
31768;SDS011;18342;52.132;21.048;2022-11-20T09:02:04;62.90;;;29.80;;
31768;SDS011;18342;52.132;21.048;2022-11-20T09:04:30;63.90;;;30.77;;
31768;SDS011;18342;52.132;21.048;2022-11-20T09:06:56;64.17;;;29.27;;
31768;SDS011;18342;52.132;21.048;2022-11-20T09:09:21;60.30;;;28.90;;
31768;SDS011;18342;52.132;21.048;2022-11-20T09:11:47;61.03;;;28.63;;
31768;SDS011;18342;52.132;21.048;2022-11-20T09:14:14;57.50;;;28.77;;
31768;SDS011;18342;52.132;21.048;2022-11-20T09:16:40;59.33;;;28.60;;
31768;SDS011;18342;52.132;21.048;2022-11-20T09:19:06;60.67;;;28.83;;
31768;SDS011;18342;52.132;21.048;2022-11-20T09:21:31;61.20;;;29.97;;
31768;SDS011;18342;52.132;21.048;2022-11-20T09:23:57;58.37;;;28.73;;
31768;SDS011;18342;52.132;21.048;2022-11-20T09:26:23;60.27;;;28.97;;
31768;SDS011;18342;52.132;21.048;2022-11-20T09:28:48;63.30;;;28.37;;
31768;SDS011;18342;52.132;21.048;2022-11-20T09:31:23;63.80;;;27.93;;
31768;SDS011;18342;52.132;21.048;2022-11-20T09:33:51;63.17;;;29.13;;
31768;SDS011;18342;52.132;21.048;2022-11-20T09:36:17;54.87;;;27.00;;
31768;SDS011;18342;52.132;21.048;2022-11-20T09:38:44;64.10;;;30.10;;
31768;SDS011;18342;52.132;21.048;2022-11-20T09:41:18;59.03;;;28.70;;
31768;SDS011;18342;52.132;21.048;2022-11-20T09:56:39;61.63;;;29.67;;
31768;SDS011;18342;52.132;21.048;2022-11-20T09:59:07;64.60;;;31.10;;
31768;SDS011;18342;52.132;21.048;2022-11-20T10:01:48;59.10;;;28.83;;
31768;SDS011;18342;52.132;21.048;2022-11-20T10:04:18;57.70;;;28.93;;
31768;SDS011;18342;52.132;21.048;2022-11-20T10:09:52;56.07;;;28.27;;
31768;SDS011;18342;52.132;21.048;2022-11-20T10:15:27;58.63;;;28.37;;
31768;SDS011;18342;52.132;21.048;2022-11-20T10:18:03;58.20;;;29.90;;
31768;SDS011;18342;52.132;21.048;2022-11-20T10:31:40;55.67;;;27.90;;
31768;SDS011;18342;52.132;21.048;2022-11-20T10:36:54;54.53;;;27.33;;
31768;SDS011;18342;52.132;21.048;2022-11-20T10:42:42;59.47;;;27.80;;
31768;SDS011;18342;52.132;21.048;2022-11-20T10:47:49;56.23;;;29.33;;
31768;SDS011;18342;52.132;21.048;2022-11-20T10:50:19;55.10;;;26.63;;
31768;SDS011;18342;52.132;21.048;2022-11-20T10:53:11;53.63;;;25.87;;
31768;SDS011;18342;52.132;21.048;2022-11-20T10:56:00;56.63;;;34.30;;
31768;SDS011;18342;52.132;21.048;2022-11-20T10:58:52;52.13;;;27.80;;
31768;SDS011;18342;52.132;21.048;2022-11-20T11:01:39;51.47;;;27.40;;
31768;SDS011;18342;52.132;21.048;2022-11-20T11:04:13;50.70;;;25.33;;
31768;SDS011;18342;52.132;21.048;2022-11-20T11:06:54;50.20;;;25.10;;
31768;SDS011;18342;52.132;21.048;2022-11-20T11:09:44;53.10;;;27.10;;
31768;SDS011;18342;52.132;21.048;2022-11-20T11:12:13;52.50;;;25.83;;
31768;SDS011;18342;52.132;21.048;2022-11-20T11:14:46;54.40;;;25.60;;
31768;SDS011;18342;52.132;21.048;2022-11-20T11:17:37;46.87;;;24.20;;
31768;SDS011;18342;52.132;21.048;2022-11-20T11:22:43;51.73;;;26.17;;
31768;SDS011;18342;52.132;21.048;2022-11-20T11:27:51;45.57;;;23.73;;
31768;SDS011;18342;52.132;21.048;2022-11-20T11:30:20;51.03;;;26.20;;
31768;SDS011;18342;52.132;21.048;2022-11-20T11:32:46;48.37;;;25.40;;
31768;SDS011;18342;52.132;21.048;2022-11-20T11:35:22;48.63;;;25.10;;
31768;SDS011;18342;52.132;21.048;2022-11-20T11:37:53;48.07;;;25.67;;
31768;SDS011;18342;52.132;21.048;2022-11-20T11:40:27;45.90;;;24.60;;
31768;SDS011;18342;52.132;21.048;2022-11-20T11:42:57;49.03;;;25.33;;
31768;SDS011;18342;52.132;21.048;2022-11-20T11:45:26;45.40;;;24.67;;
31768;SDS011;18342;52.132;21.048;2022-11-20T11:47:52;56.07;;;28.50;;
31768;SDS011;18342;52.132;21.048;2022-11-20T11:50:22;50.43;;;25.67;;
31768;SDS011;18342;52.132;21.048;2022-11-20T11:57:50;50.10;;;25.63;;
31768;SDS011;18342;52.132;21.048;2022-11-20T12:00:20;49.13;;;25.50;;
31768;SDS011;18342;52.132;21.048;2022-11-20T12:05:20;54.40;;;27.27;;
31768;SDS011;18342;52.132;21.048;2022-11-20T12:11:04;49.13;;;24.73;;
31768;SDS011;18342;52.132;21.048;2022-11-20T12:13:56;47.57;;;25.50;;
31768;SDS011;18342;52.132;21.048;2022-11-20T12:16:30;52.50;;;26.80;;
31768;SDS011;18342;52.132;21.048;2022-11-20T12:19:00;44.90;;;23.37;;
31768;SDS011;18342;52.132;21.048;2022-11-20T12:21:47;47.87;;;24.23;;
31768;SDS011;18342;52.132;21.048;2022-11-20T12:32:25;46.03;;;23.13;;
31768;SDS011;18342;52.132;21.048;2022-11-20T12:43:01;42.47;;;21.00;;
31768;SDS011;18342;52.132;21.048;2022-11-20T12:46:06;46.97;;;22.13;;
31768;SDS011;18342;52.132;21.048;2022-11-20T12:59:51;40.87;;;21.23;;
31768;SDS011;18342;52.132;21.048;2022-11-20T13:02:23;38.70;;;20.67;;
31768;SDS011;18342;52.132;21.048;2022-11-20T13:13:57;41.97;;;21.13;;
31768;SDS011;18342;52.132;21.048;2022-11-20T13:19:17;39.73;;;20.43;;
31768;SDS011;18342;52.132;21.048;2022-11-20T13:21:47;46.90;;;22.90;;
31768;SDS011;18342;52.132;21.048;2022-11-20T13:29:38;43.97;;;23.00;;
31768;SDS011;18342;52.132;21.048;2022-11-20T13:32:18;45.33;;;23.83;;
31768;SDS011;18342;52.132;21.048;2022-11-20T13:34:56;46.00;;;23.63;;
31768;SDS011;18342;52.132;21.048;2022-11-20T13:37:33;45.27;;;23.13;;
31768;SDS011;18342;52.132;21.048;2022-11-20T13:42:35;47.53;;;25.33;;
31768;SDS011;18342;52.132;21.048;2022-11-20T13:45:11;45.70;;;23.33;;
31768;SDS011;18342;52.132;21.048;2022-11-20T13:47:51;46.70;;;24.77;;
31768;SDS011;18342;52.132;21.048;2022-11-20T13:50:18;53.13;;;26.33;;
31768;SDS011;18342;52.132;21.048;2022-11-20T13:58:12;52.30;;;26.83;;
31768;SDS011;18342;52.132;21.048;2022-11-20T14:00:57;51.03;;;25.97;;
31768;SDS011;18342;52.132;21.048;2022-11-20T14:03:28;51.40;;;26.60;;
31768;SDS011;18342;52.132;21.048;2022-11-20T14:05:57;53.73;;;27.60;;
31768;SDS011;18342;52.132;21.048;2022-11-20T14:08:31;52.37;;;27.73;;
31768;SDS011;18342;52.132;21.048;2022-11-20T14:11:12;51.10;;;27.33;;
31768;SDS011;18342;52.132;21.048;2022-11-20T14:14:13;55.67;;;28.60;;
31768;SDS011;18342;52.132;21.048;2022-11-20T14:16:42;56.53;;;28.37;;
31768;SDS011;18342;52.132;21.048;2022-11-20T14:19:42;55.40;;;28.50;;
31768;SDS011;18342;52.132;21.048;2022-11-20T14:24:48;48.83;;;25.93;;
31768;SDS011;18342;52.132;21.048;2022-11-20T14:27:25;60.37;;;29.13;;
31768;SDS011;18342;52.132;21.048;2022-11-20T14:29:51;48.63;;;25.70;;
31768;SDS011;18342;52.132;21.048;2022-11-20T14:32:17;56.27;;;28.60;;
31768;SDS011;18342;52.132;21.048;2022-11-20T14:34:47;54.07;;;28.67;;
31768;SDS011;18342;52.132;21.048;2022-11-20T14:37:23;57.70;;;28.07;;
31768;SDS011;18342;52.132;21.048;2022-11-20T14:39:54;52.97;;;28.33;;
31768;SDS011;18342;52.132;21.048;2022-11-20T14:42:24;55.37;;;27.73;;
31768;SDS011;18342;52.132;21.048;2022-11-20T14:44:52;56.83;;;27.27;;
31768;SDS011;18342;52.132;21.048;2022-11-20T14:47:22;57.97;;;28.07;;
31768;SDS011;18342;52.132;21.048;2022-11-20T14:49:54;58.17;;;27.67;;
31768;SDS011;18342;52.132;21.048;2022-11-20T14:52:22;53.77;;;27.73;;
31768;SDS011;18342;52.132;21.048;2022-11-20T14:54:50;56.43;;;28.93;;
31768;SDS011;18342;52.132;21.048;2022-11-20T14:59:49;53.87;;;25.97;;
31768;SDS011;18342;52.132;21.048;2022-11-20T15:02:14;53.33;;;26.63;;
31768;SDS011;18342;52.132;21.048;2022-11-20T15:04:47;54.27;;;26.60;;
31768;SDS011;18342;52.132;21.048;2022-11-20T15:07:23;56.33;;;27.00;;
31768;SDS011;18342;52.132;21.048;2022-11-20T15:10:06;56.10;;;26.53;;
31768;SDS011;18342;52.132;21.048;2022-11-20T15:12:35;54.07;;;27.60;;
31768;SDS011;18342;52.132;21.048;2022-11-20T15:15:14;51.97;;;26.40;;
31768;SDS011;18342;52.132;21.048;2022-11-20T15:17:44;54.77;;;27.10;;
31768;SDS011;18342;52.132;21.048;2022-11-20T15:20:12;54.07;;;26.77;;
31768;SDS011;18342;52.132;21.048;2022-11-20T15:22:40;51.33;;;25.53;;
31768;SDS011;18342;52.132;21.048;2022-11-20T15:25:13;56.77;;;27.27;;
31768;SDS011;18342;52.132;21.048;2022-11-20T15:27:41;52.77;;;27.13;;
31768;SDS011;18342;52.132;21.048;2022-11-20T15:30:18;52.80;;;25.87;;
31768;SDS011;18342;52.132;21.048;2022-11-20T15:32:45;52.77;;;26.83;;
31768;SDS011;18342;52.132;21.048;2022-11-20T15:35:11;53.93;;;26.47;;
31768;SDS011;18342;52.132;21.048;2022-11-20T15:37:39;50.27;;;24.43;;
31768;SDS011;18342;52.132;21.048;2022-11-20T15:40:06;53.17;;;26.20;;
31768;SDS011;18342;52.132;21.048;2022-11-20T15:42:32;53.13;;;26.47;;
31768;SDS011;18342;52.132;21.048;2022-11-20T15:44:59;50.67;;;24.50;;
31768;SDS011;18342;52.132;21.048;2022-11-20T15:47:25;51.57;;;25.40;;
31768;SDS011;18342;52.132;21.048;2022-11-20T15:49:56;49.53;;;24.87;;
31768;SDS011;18342;52.132;21.048;2022-11-20T15:52:22;49.93;;;25.73;;
31768;SDS011;18342;52.132;21.048;2022-11-20T15:54:48;51.17;;;25.50;;
31768;SDS011;18342;52.132;21.048;2022-11-20T15:57:13;51.67;;;25.93;;
31768;SDS011;18342;52.132;21.048;2022-11-20T15:59:39;55.57;;;26.37;;
31768;SDS011;18342;52.132;21.048;2022-11-20T16:02:10;59.77;;;28.73;;
31768;SDS011;18342;52.132;21.048;2022-11-20T16:04:36;51.20;;;26.30;;
31768;SDS011;18342;52.132;21.048;2022-11-20T16:07:03;55.03;;;27.80;;
31768;SDS011;18342;52.132;21.048;2022-11-20T16:09:29;62.67;;;35.50;;
31768;SDS011;18342;52.132;21.048;2022-11-20T16:11:54;56.10;;;29.73;;
31768;SDS011;18342;52.132;21.048;2022-11-20T16:14:20;57.73;;;28.90;;
31768;SDS011;18342;52.132;21.048;2022-11-20T16:17:04;52.23;;;24.97;;
31768;SDS011;18342;52.132;21.048;2022-11-20T16:19:30;51.93;;;26.30;;
31768;SDS011;18342;52.132;21.048;2022-11-20T16:21:57;51.70;;;25.23;;
31768;SDS011;18342;52.132;21.048;2022-11-20T16:24:24;52.87;;;26.83;;